sensor_id;sensor_type;location;lat;lon;timestamp;P1;durP1;ratioP1;P2;durP2;ratioP2
13321;SDS011;6730;46.248;6.930;2024-01-06T00:02:00;1.20;;;1.00;;
13321;SDS011;6730;46.248;6.930;2024-01-06T00:04:30;1.23;;;1.00;;
13321;SDS011;6730;46.248;6.930;2024-01-06T00:06:57;1.30;;;1.20;;
13321;SDS011;6730;46.248;6.930;2024-01-06T00:09:25;1.43;;;1.33;;
13321;SDS011;6730;46.248;6.930;2024-01-06T00:11:51;1.47;;;1.10;;
13321;SDS011;6730;46.248;6.930;2024-01-06T00:14:21;1.40;;;1.30;;
13321;SDS011;6730;46.248;6.930;2024-01-06T00:16:54;1.50;;;1.40;;
13321;SDS011;6730;46.248;6.930;2024-01-06T00:19:22;1.70;;;1.20;;
13321;SDS011;6730;46.248;6.930;2024-01-06T00:21:52;1.00;;;0.90;;
13321;SDS011;6730;46.248;6.930;2024-01-06T00:24:22;1.23;;;0.73;;
13321;SDS011;6730;46.248;6.930;2024-01-06T00:26:50;0.97;;;0.90;;
13321;SDS011;6730;46.248;6.930;2024-01-06T00:29:22;0.70;;;0.60;;
13321;SDS011;6730;46.248;6.930;2024-01-06T00:31:50;0.67;;;0.60;;
13321;SDS011;6730;46.248;6.930;2024-01-06T00:34:21;0.77;;;0.77;;
13321;SDS011;6730;46.248;6.930;2024-01-06T00:36:56;1.03;;;0.90;;
13321;SDS011;6730;46.248;6.930;2024-01-06T00:39:25;0.67;;;0.60;;
13321;SDS011;6730;46.248;6.930;2024-01-06T00:41:55;0.67;;;0.60;;
13321;SDS011;6730;46.248;6.930;2024-01-06T00:44:25;0.43;;;0.43;;
13321;SDS011;6730;46.248;6.930;2024-01-06T00:47:03;0.80;;;0.70;;
13321;SDS011;6730;46.248;6.930;2024-01-06T00:49:51;0.87;;;0.60;;
13321;SDS011;6730;46.248;6.930;2024-01-06T00:52:20;1.43;;;1.00;;
13321;SDS011;6730;46.248;6.930;2024-01-06T00:54:52;1.47;;;1.20;;
13321;SDS011;6730;46.248;6.930;2024-01-06T00:57:26;1.90;;;1.40;;
13321;SDS011;6730;46.248;6.930;2024-01-06T01:00:07;1.70;;;1.27;;
13321;SDS011;6730;46.248;6.930;2024-01-06T01:02:38;2.90;;;1.87;;
13321;SDS011;6730;46.248;6.930;2024-01-06T01:05:11;2.73;;;1.73;;
13321;SDS011;6730;46.248;6.930;2024-01-06T01:07:41;2.00;;;1.70;;
13321;SDS011;6730;46.248;6.930;2024-01-06T01:10:15;2.03;;;1.50;;
13321;SDS011;6730;46.248;6.930;2024-01-06T01:12:54;2.17;;;1.40;;
13321;SDS011;6730;46.248;6.930;2024-01-06T01:15:32;1.97;;;1.07;;
13321;SDS011;6730;46.248;6.930;2024-01-06T01:18:00;0.50;;;0.50;;
13321;SDS011;6730;46.248;6.930;2024-01-06T01:20:31;0.50;;;0.50;;
13321;SDS011;6730;46.248;6.930;2024-01-06T01:23:03;0.53;;;0.53;;
13321;SDS011;6730;46.248;6.930;2024-01-06T01:25:35;0.30;;;0.30;;
13321;SDS011;6730;46.248;6.930;2024-01-06T01:28:08;0.40;;;0.40;;
13321;SDS011;6730;46.248;6.930;2024-01-06T01:30:39;0.60;;;0.60;;
13321;SDS011;6730;46.248;6.930;2024-01-06T01:33:07;0.37;;;0.37;;
13321;SDS011;6730;46.248;6.930;2024-01-06T01:35:39;0.30;;;0.30;;
13321;SDS011;6730;46.248;6.930;2024-01-06T01:38:22;0.47;;;0.47;;
13321;SDS011;6730;46.248;6.930;2024-01-06T01:41:03;0.40;;;0.40;;
13321;SDS011;6730;46.248;6.930;2024-01-06T01:43:36;0.37;;;0.37;;
13321;SDS011;6730;46.248;6.930;2024-01-06T01:46:10;0.93;;;0.50;;
13321;SDS011;6730;46.248;6.930;2024-01-06T01:48:40;0.33;;;0.33;;
13321;SDS011;6730;46.248;6.930;2024-01-06T01:51:10;0.40;;;0.40;;
13321;SDS011;6730;46.248;6.930;2024-01-06T01:53:39;0.37;;;0.37;;
13321;SDS011;6730;46.248;6.930;2024-01-06T01:56:08;0.40;;;0.40;;
13321;SDS011;6730;46.248;6.930;2024-01-06T01:58:38;0.50;;;0.50;;
13321;SDS011;6730;46.248;6.930;2024-01-06T02:01:07;1.30;;;1.20;;
13321;SDS011;6730;46.248;6.930;2024-01-06T02:03:36;0.83;;;0.83;;
13321;SDS011;6730;46.248;6.930;2024-01-06T02:06:06;0.90;;;0.90;;
13321;SDS011;6730;46.248;6.930;2024-01-06T02:08:35;0.90;;;0.90;;
13321;SDS011;6730;46.248;6.930;2024-01-06T02:11:06;1.10;;;1.00;;
13321;SDS011;6730;46.248;6.930;2024-01-06T02:13:39;0.73;;;0.73;;
13321;SDS011;6730;46.248;6.930;2024-01-06T02:16:11;1.27;;;1.07;;
13321;SDS011;6730;46.248;6.930;2024-01-06T02:18:46;1.10;;;1.00;;
13321;SDS011;6730;46.248;6.930;2024-01-06T02:21:19;0.87;;;0.87;;
13321;SDS011;6730;46.248;6.930;2024-01-06T02:23:49;0.80;;;0.80;;
13321;SDS011;6730;46.248;6.930;2024-01-06T02:26:17;1.37;;;1.00;;
13321;SDS011;6730;46.248;6.930;2024-01-06T02:28:55;1.07;;;0.90;;
13321;SDS011;6730;46.248;6.930;2024-01-06T02:31:25;0.87;;;0.80;;
13321;SDS011;6730;46.248;6.930;2024-01-06T02:34:00;0.73;;;0.73;;
13321;SDS011;6730;46.248;6.930;2024-01-06T02:36:29;1.07;;;0.97;;
13321;SDS011;6730;46.248;6.930;2024-01-06T02:38:57;0.70;;;0.70;;
13321;SDS011;6730;46.248;6.930;2024-01-06T02:41:28;0.80;;;0.70;;
13321;SDS011;6730;46.248;6.930;2024-01-06T02:43:59;0.73;;;0.70;;
13321;SDS011;6730;46.248;6.930;2024-01-06T02:46:29;0.80;;;0.70;;
13321;SDS011;6730;46.248;6.930;2024-01-06T02:48:56;0.80;;;0.80;;
13321;SDS011;6730;46.248;6.930;2024-01-06T02:51:30;0.77;;;0.77;;
13321;SDS011;6730;46.248;6.930;2024-01-06T02:53:57;1.03;;;0.67;;
13321;SDS011;6730;46.248;6.930;2024-01-06T02:56:26;0.63;;;0.60;;
13321;SDS011;6730;46.248;6.930;2024-01-06T02:58:55;0.73;;;0.73;;
13321;SDS011;6730;46.248;6.930;2024-01-06T03:01:23;0.50;;;0.50;;
13321;SDS011;6730;46.248;6.930;2024-01-06T03:03:50;0.80;;;0.70;;
13321;SDS011;6730;46.248;6.930;2024-01-06T03:06:17;0.70;;;0.70;;
13321;SDS011;6730;46.248;6.930;2024-01-06T03:08:44;0.60;;;0.60;;
13321;SDS011;6730;46.248;6.930;2024-01-06T03:11:13;1.00;;;0.73;;
13321;SDS011;6730;46.248;6.930;2024-01-06T03:13:42;0.60;;;0.60;;
13321;SDS011;6730;46.248;6.930;2024-01-06T03:16:13;0.97;;;0.80;;
13321;SDS011;6730;46.248;6.930;2024-01-06T03:18:41;1.20;;;1.10;;
13321;SDS011;6730;46.248;6.930;2024-01-06T03:21:19;0.80;;;0.70;;
13321;SDS011;6730;46.248;6.930;2024-01-06T03:23:49;0.87;;;0.87;;
13321;SDS011;6730;46.248;6.930;2024-01-06T03:26:22;1.00;;;0.90;;
13321;SDS011;6730;46.248;6.930;2024-01-06T03:28:54;1.80;;;1.00;;
13321;SDS011;6730;46.248;6.930;2024-01-06T03:31:24;1.00;;;0.90;;
13321;SDS011;6730;46.248;6.930;2024-01-06T03:33:53;0.77;;;0.77;;
13321;SDS011;6730;46.248;6.930;2024-01-06T03:36:22;0.70;;;0.70;;
13321;SDS011;6730;46.248;6.930;2024-01-06T03:38:51;1.00;;;0.90;;
13321;SDS011;6730;46.248;6.930;2024-01-06T03:41:20;1.20;;;1.10;;
13321;SDS011;6730;46.248;6.930;2024-01-06T03:43:52;1.27;;;0.90;;
13321;SDS011;6730;46.248;6.930;2024-01-06T03:46:19;1.40;;;1.30;;
13321;SDS011;6730;46.248;6.930;2024-01-06T03:48:51;1.60;;;1.50;;
13321;SDS011;6730;46.248;6.930;2024-01-06T03:51:25;1.57;;;1.47;;
13321;SDS011;6730;46.248;6.930;2024-01-06T03:53:53;1.10;;;1.00;;
13321;SDS011;6730;46.248;6.930;2024-01-06T03:56:32;1.20;;;1.10;;
13321;SDS011;6730;46.248;6.930;2024-01-06T03:59:01;1.20;;;1.10;;
13321;SDS011;6730;46.248;6.930;2024-01-06T04:01:34;1.60;;;1.50;;
13321;SDS011;6730;46.248;6.930;2024-01-06T04:04:02;1.33;;;1.10;;
13321;SDS011;6730;46.248;6.930;2024-01-06T04:06:41;1.30;;;1.20;;
13321;SDS011;6730;46.248;6.930;2024-01-06T04:09:10;1.13;;;1.03;;
13321;SDS011;6730;46.248;6.930;2024-01-06T04:11:38;1.30;;;1.20;;
13321;SDS011;6730;46.248;6.930;2024-01-06T04:14:08;1.50;;;1.13;;
13321;SDS011;6730;46.248;6.930;2024-01-06T04:16:40;1.20;;;1.10;;
13321;SDS011;6730;46.248;6.930;2024-01-06T04:19:09;1.30;;;1.20;;
13321;SDS011;6730;46.248;6.930;2024-01-06T04:21:40;1.23;;;1.13;;
13321;SDS011;6730;46.248;6.930;2024-01-06T04:24:24;0.80;;;0.80;;
13321;SDS011;6730;46.248;6.930;2024-01-06T04:26:53;0.83;;;0.83;;
13321;SDS011;6730;46.248;6.930;2024-01-06T04:29:25;0.90;;;0.80;;
13321;SDS011;6730;46.248;6.930;2024-01-06T04:31:57;0.60;;;0.60;;
13321;SDS011;6730;46.248;6.930;2024-01-06T04:34:27;0.57;;;0.57;;
13321;SDS011;6730;46.248;6.930;2024-01-06T04:36:56;0.70;;;0.70;;
13321;SDS011;6730;46.248;6.930;2024-01-06T04:39:35;1.03;;;0.70;;
13321;SDS011;6730;46.248;6.930;2024-01-06T04:42:04;0.50;;;0.50;;
13321;SDS011;6730;46.248;6.930;2024-01-06T04:44:31;0.70;;;0.70;;
13321;SDS011;6730;46.248;6.930;2024-01-06T04:47:01;0.70;;;0.60;;
13321;SDS011;6730;46.248;6.930;2024-01-06T04:49:34;0.40;;;0.40;;
13321;SDS011;6730;46.248;6.930;2024-01-06T04:52:04;0.77;;;0.60;;
13321;SDS011;6730;46.248;6.930;2024-01-06T04:54:36;1.37;;;0.90;;
13321;SDS011;6730;46.248;6.930;2024-01-06T04:57:04;0.17;;;0.17;;
13321;SDS011;6730;46.248;6.930;2024-01-06T04:59:33;0.50;;;0.50;;
13321;SDS011;6730;46.248;6.930;2024-01-06T05:02:06;0.90;;;0.63;;
13321;SDS011;6730;46.248;6.930;2024-01-06T05:04:47;1.03;;;0.30;;
13321;SDS011;6730;46.248;6.930;2024-01-06T05:07:22;0.30;;;0.30;;
13321;SDS011;6730;46.248;6.930;2024-01-06T05:10:18;0.63;;;0.63;;
13321;SDS011;6730;46.248;6.930;2024-01-06T05:13:00;0.60;;;0.53;;
13321;SDS011;6730;46.248;6.930;2024-01-06T05:15:31;1.30;;;0.60;;
13321;SDS011;6730;46.248;6.930;2024-01-06T05:18:13;0.20;;;0.20;;
13321;SDS011;6730;46.248;6.930;2024-01-06T05:20:42;0.20;;;0.20;;
13321;SDS011;6730;46.248;6.930;2024-01-06T05:23:11;0.20;;;0.20;;
13321;SDS011;6730;46.248;6.930;2024-01-06T05:25:38;0.20;;;0.20;;
13321;SDS011;6730;46.248;6.930;2024-01-06T05:28:11;1.27;;;0.40;;
13321;SDS011;6730;46.248;6.930;2024-01-06T05:30:40;0.30;;;0.30;;
13321;SDS011;6730;46.248;6.930;2024-01-06T05:33:09;1.80;;;0.43;;
13321;SDS011;6730;46.248;6.930;2024-01-06T05:35:38;0.30;;;0.30;;
13321;SDS011;6730;46.248;6.930;2024-01-06T05:38:05;0.50;;;0.40;;
13321;SDS011;6730;46.248;6.930;2024-01-06T05:40:32;0.40;;;0.40;;
13321;SDS011;6730;46.248;6.930;2024-01-06T05:43:01;1.03;;;0.40;;
13321;SDS011;6730;46.248;6.930;2024-01-06T05:45:28;0.40;;;0.40;;
13321;SDS011;6730;46.248;6.930;2024-01-06T05:47:57;0.63;;;0.50;;
13321;SDS011;6730;46.248;6.930;2024-01-06T05:50:39;1.13;;;0.50;;
13321;SDS011;6730;46.248;6.930;2024-01-06T05:53:11;1.00;;;0.50;;
13321;SDS011;6730;46.248;6.930;2024-01-06T05:55:44;1.00;;;0.50;;
13321;SDS011;6730;46.248;6.930;2024-01-06T05:58:22;1.67;;;0.67;;
13321;SDS011;6730;46.248;6.930;2024-01-06T06:00:48;0.40;;;0.40;;
13321;SDS011;6730;46.248;6.930;2024-01-06T06:03:14;0.40;;;0.40;;
13321;SDS011;6730;46.248;6.930;2024-01-06T06:05:40;0.23;;;0.23;;
13321;SDS011;6730;46.248;6.930;2024-01-06T06:08:06;0.60;;;0.60;;
13321;SDS011;6730;46.248;6.930;2024-01-06T06:10:32;0.40;;;0.40;;
13321;SDS011;6730;46.248;6.930;2024-01-06T06:13:06;0.40;;;0.40;;
13321;SDS011;6730;46.248;6.930;2024-01-06T06:15:36;0.53;;;0.43;;
13321;SDS011;6730;46.248;6.930;2024-01-06T06:18:02;0.60;;;0.60;;
13321;SDS011;6730;46.248;6.930;2024-01-06T06:20:28;0.50;;;0.50;;
13321;SDS011;6730;46.248;6.930;2024-01-06T06:22:54;0.40;;;0.40;;
13321;SDS011;6730;46.248;6.930;2024-01-06T06:25:20;0.30;;;0.30;;
13321;SDS011;6730;46.248;6.930;2024-01-06T06:27:46;0.53;;;0.50;;
13321;SDS011;6730;46.248;6.930;2024-01-06T06:30:12;0.63;;;0.37;;
13321;SDS011;6730;46.248;6.930;2024-01-06T06:32:43;0.37;;;0.37;;
13321;SDS011;6730;46.248;6.930;2024-01-06T06:35:09;0.80;;;0.50;;
13321;SDS011;6730;46.248;6.930;2024-01-06T06:37:35;0.30;;;0.30;;
13321;SDS011;6730;46.248;6.930;2024-01-06T06:40:00;2.00;;;0.33;;
13321;SDS011;6730;46.248;6.930;2024-01-06T06:42:26;0.47;;;0.40;;
13321;SDS011;6730;46.248;6.930;2024-01-06T06:44:52;0.40;;;0.40;;
13321;SDS011;6730;46.248;6.930;2024-01-06T06:47:22;0.10;;;0.10;;
13321;SDS011;6730;46.248;6.930;2024-01-06T06:49:48;0.33;;;0.33;;
13321;SDS011;6730;46.248;6.930;2024-01-06T06:52:13;0.40;;;0.40;;
13321;SDS011;6730;46.248;6.930;2024-01-06T06:54:39;0.40;;;0.40;;
13321;SDS011;6730;46.248;6.930;2024-01-06T06:57:05;0.30;;;0.30;;
13321;SDS011;6730;46.248;6.930;2024-01-06T06:59:30;0.40;;;0.40;;
13321;SDS011;6730;46.248;6.930;2024-01-06T07:01:56;0.50;;;0.50;;
13321;SDS011;6730;46.248;6.930;2024-01-06T07:04:22;0.40;;;0.40;;
13321;SDS011;6730;46.248;6.930;2024-01-06T07:06:48;0.40;;;0.40;;
13321;SDS011;6730;46.248;6.930;2024-01-06T07:09:14;1.03;;;0.60;;
13321;SDS011;6730;46.248;6.930;2024-01-06T07:11:39;0.40;;;0.40;;
13321;SDS011;6730;46.248;6.930;2024-01-06T07:14:08;0.40;;;0.40;;
13321;SDS011;6730;46.248;6.930;2024-01-06T07:16:39;0.30;;;0.30;;
13321;SDS011;6730;46.248;6.930;2024-01-06T07:19:04;0.87;;;0.50;;
13321;SDS011;6730;46.248;6.930;2024-01-06T07:21:30;0.57;;;0.30;;
13321;SDS011;6730;46.248;6.930;2024-01-06T07:23:56;0.70;;;0.53;;
13321;SDS011;6730;46.248;6.930;2024-01-06T07:26:22;0.37;;;0.37;;
13321;SDS011;6730;46.248;6.930;2024-01-06T07:28:47;0.40;;;0.40;;
13321;SDS011;6730;46.248;6.930;2024-01-06T07:31:13;1.27;;;0.50;;
13321;SDS011;6730;46.248;6.930;2024-01-06T07:33:42;0.50;;;0.50;;
13321;SDS011;6730;46.248;6.930;2024-01-06T07:36:08;0.50;;;0.50;;
13321;SDS011;6730;46.248;6.930;2024-01-06T07:38:34;0.57;;;0.57;;
13321;SDS011;6730;46.248;6.930;2024-01-06T07:41:06;0.60;;;0.60;;
13321;SDS011;6730;46.248;6.930;2024-01-06T07:43:32;0.50;;;0.50;;
13321;SDS011;6730;46.248;6.930;2024-01-06T07:46:00;0.30;;;0.30;;
13321;SDS011;6730;46.248;6.930;2024-01-06T07:48:28;0.33;;;0.33;;
13321;SDS011;6730;46.248;6.930;2024-01-06T07:50:56;0.30;;;0.30;;
13321;SDS011;6730;46.248;6.930;2024-01-06T07:53:22;1.10;;;0.70;;
13321;SDS011;6730;46.248;6.930;2024-01-06T07:55:48;0.53;;;0.53;;
13321;SDS011;6730;46.248;6.930;2024-01-06T07:58:14;1.00;;;0.90;;
13321;SDS011;6730;46.248;6.930;2024-01-06T08:00:41;0.93;;;0.53;;
13321;SDS011;6730;46.248;6.930;2024-01-06T08:03:07;1.73;;;1.30;;
13321;SDS011;6730;46.248;6.930;2024-01-06T08:05:32;1.03;;;0.80;;
13321;SDS011;6730;46.248;6.930;2024-01-06T08:07:58;1.40;;;0.80;;
13321;SDS011;6730;46.248;6.930;2024-01-06T08:10:24;0.50;;;0.50;;
13321;SDS011;6730;46.248;6.930;2024-01-06T08:12:49;1.00;;;0.77;;
13321;SDS011;6730;46.248;6.930;2024-01-06T08:15:15;0.90;;;0.70;;
13321;SDS011;6730;46.248;6.930;2024-01-06T08:17:41;0.93;;;0.80;;
13321;SDS011;6730;46.248;6.930;2024-01-06T08:20:08;0.83;;;0.77;;
13321;SDS011;6730;46.248;6.930;2024-01-06T08:22:33;0.90;;;0.80;;
13321;SDS011;6730;46.248;6.930;2024-01-06T08:24:59;1.23;;;0.80;;
13321;SDS011;6730;46.248;6.930;2024-01-06T08:27:25;1.20;;;0.60;;
13321;SDS011;6730;46.248;6.930;2024-01-06T08:29:50;0.50;;;0.37;;
13321;SDS011;6730;46.248;6.930;2024-01-06T08:32:16;1.97;;;0.67;;
13321;SDS011;6730;46.248;6.930;2024-01-06T08:34:42;0.60;;;0.57;;
13321;SDS011;6730;46.248;6.930;2024-01-06T08:37:07;0.80;;;0.60;;
13321;SDS011;6730;46.248;6.930;2024-01-06T08:39:33;0.90;;;0.80;;
13321;SDS011;6730;46.248;6.930;2024-01-06T08:41:59;0.90;;;0.80;;
13321;SDS011;6730;46.248;6.930;2024-01-06T08:44:24;3.20;;;1.63;;
13321;SDS011;6730;46.248;6.930;2024-01-06T08:46:50;2.20;;;1.77;;
13321;SDS011;6730;46.248;6.930;2024-01-06T08:49:16;3.00;;;2.00;;
13321;SDS011;6730;46.248;6.930;2024-01-06T08:51:42;2.83;;;1.83;;
13321;SDS011;6730;46.248;6.930;2024-01-06T08:54:08;2.20;;;1.80;;
13321;SDS011;6730;46.248;6.930;2024-01-06T08:56:34;1.77;;;1.43;;
13321;SDS011;6730;46.248;6.930;2024-01-06T08:58:59;2.73;;;1.47;;
13321;SDS011;6730;46.248;6.930;2024-01-06T09:01:26;1.47;;;1.23;;
13321;SDS011;6730;46.248;6.930;2024-01-06T09:03:52;1.00;;;0.70;;
13321;SDS011;6730;46.248;6.930;2024-01-06T09:06:18;1.33;;;1.00;;
13321;SDS011;6730;46.248;6.930;2024-01-06T09:08:43;3.33;;;1.37;;
13321;SDS011;6730;46.248;6.930;2024-01-06T09:11:09;1.50;;;1.27;;
13321;SDS011;6730;46.248;6.930;2024-01-06T09:13:35;1.47;;;1.13;;
13321;SDS011;6730;46.248;6.930;2024-01-06T09:16:00;1.10;;;1.00;;
13321;SDS011;6730;46.248;6.930;2024-01-06T09:18:26;1.27;;;1.07;;
13321;SDS011;6730;46.248;6.930;2024-01-06T09:20:52;1.10;;;1.00;;
13321;SDS011;6730;46.248;6.930;2024-01-06T09:23:19;1.40;;;1.10;;
13321;SDS011;6730;46.248;6.930;2024-01-06T09:25:45;1.23;;;1.10;;
13321;SDS011;6730;46.248;6.930;2024-01-06T09:28:14;1.10;;;1.00;;
13321;SDS011;6730;46.248;6.930;2024-01-06T09:30:40;4.57;;;3.60;;
13321;SDS011;6730;46.248;6.930;2024-01-06T09:33:06;2.57;;;1.60;;
13321;SDS011;6730;46.248;6.930;2024-01-06T09:35:33;1.03;;;0.87;;
13321;SDS011;6730;46.248;6.930;2024-01-06T09:37:59;0.70;;;0.70;;
13321;SDS011;6730;46.248;6.930;2024-01-06T09:40:24;1.20;;;1.10;;
13321;SDS011;6730;46.248;6.930;2024-01-06T09:42:50;1.83;;;1.40;;
13321;SDS011;6730;46.248;6.930;2024-01-06T09:45:16;1.23;;;0.97;;
13321;SDS011;6730;46.248;6.930;2024-01-06T09:47:42;0.80;;;0.80;;
13321;SDS011;6730;46.248;6.930;2024-01-06T09:50:14;1.77;;;1.43;;
13321;SDS011;6730;46.248;6.930;2024-01-06T09:52:45;1.20;;;0.90;;
13321;SDS011;6730;46.248;6.930;2024-01-06T09:55:17;2.70;;;1.00;;
13321;SDS011;6730;46.248;6.930;2024-01-06T09:57:46;3.17;;;1.00;;
13321;SDS011;6730;46.248;6.930;2024-01-06T10:00:11;2.57;;;0.97;;
13321;SDS011;6730;46.248;6.930;2024-01-06T10:02:38;2.23;;;0.77;;
13321;SDS011;6730;46.248;6.930;2024-01-06T10:05:04;1.50;;;1.00;;
13321;SDS011;6730;46.248;6.930;2024-01-06T10:07:30;1.13;;;0.93;;
13321;SDS011;6730;46.248;6.930;2024-01-06T10:09:56;1.43;;;1.17;;
13321;SDS011;6730;46.248;6.930;2024-01-06T10:12:25;1.70;;;1.00;;
13321;SDS011;6730;46.248;6.930;2024-01-06T10:14:51;1.40;;;1.00;;
13321;SDS011;6730;46.248;6.930;2024-01-06T10:17:34;2.00;;;0.90;;
13321;SDS011;6730;46.248;6.930;2024-01-06T10:20:10;0.77;;;0.77;;
13321;SDS011;6730;46.248;6.930;2024-01-06T10:22:37;0.80;;;0.70;;
13321;SDS011;6730;46.248;6.930;2024-01-06T10:25:05;1.17;;;0.87;;
13321;SDS011;6730;46.248;6.930;2024-01-06T10:27:35;1.37;;;0.90;;
13321;SDS011;6730;46.248;6.930;2024-01-06T10:30:20;0.97;;;0.93;;
13321;SDS011;6730;46.248;6.930;2024-01-06T10:32:45;1.07;;;0.97;;
13321;SDS011;6730;46.248;6.930;2024-01-06T10:35:11;0.80;;;0.80;;
13321;SDS011;6730;46.248;6.930;2024-01-06T10:37:37;1.33;;;0.83;;
13321;SDS011;6730;46.248;6.930;2024-01-06T10:40:12;1.83;;;1.07;;
13321;SDS011;6730;46.248;6.930;2024-01-06T10:42:41;0.80;;;0.80;;
13321;SDS011;6730;46.248;6.930;2024-01-06T10:45:07;1.00;;;0.83;;
13321;SDS011;6730;46.248;6.930;2024-01-06T10:47:39;1.10;;;1.00;;
13321;SDS011;6730;46.248;6.930;2024-01-06T10:50:06;1.20;;;0.73;;
13321;SDS011;6730;46.248;6.930;2024-01-06T10:52:37;0.90;;;0.80;;
13321;SDS011;6730;46.248;6.930;2024-01-06T10:55:04;1.00;;;0.90;;
13321;SDS011;6730;46.248;6.930;2024-01-06T10:57:30;2.03;;;1.37;;
13321;SDS011;6730;46.248;6.930;2024-01-06T10:59:57;2.43;;;1.50;;
13321;SDS011;6730;46.248;6.930;2024-01-06T11:02:26;1.30;;;1.00;;
13321;SDS011;6730;46.248;6.930;2024-01-06T11:04:56;1.00;;;0.80;;
13321;SDS011;6730;46.248;6.930;2024-01-06T11:07:22;2.87;;;1.77;;
13321;SDS011;6730;46.248;6.930;2024-01-06T11:09:51;1.13;;;1.03;;
13321;SDS011;6730;46.248;6.930;2024-01-06T11:12:18;1.40;;;1.10;;
13321;SDS011;6730;46.248;6.930;2024-01-06T11:14:44;1.40;;;1.10;;
13321;SDS011;6730;46.248;6.930;2024-01-06T11:17:11;2.73;;;1.10;;
13321;SDS011;6730;46.248;6.930;2024-01-06T11:24:57;1.37;;;1.00;;
13321;SDS011;6730;46.248;6.930;2024-01-06T11:27:30;1.60;;;1.10;;
13321;SDS011;6730;46.248;6.930;2024-01-06T11:29:57;2.23;;;1.20;;
13321;SDS011;6730;46.248;6.930;2024-01-06T11:32:35;1.13;;;1.03;;
13321;SDS011;6730;46.248;6.930;2024-01-06T11:35:07;3.63;;;1.40;;
13321;SDS011;6730;46.248;6.930;2024-01-06T11:37:36;1.40;;;1.27;;
13321;SDS011;6730;46.248;6.930;2024-01-06T11:40:02;1.53;;;1.00;;
13321;SDS011;6730;46.248;6.930;2024-01-06T11:42:33;3.07;;;1.30;;
13321;SDS011;6730;46.248;6.930;2024-01-06T11:45:04;2.57;;;1.07;;
13321;SDS011;6730;46.248;6.930;2024-01-06T11:47:31;1.50;;;1.00;;
13321;SDS011;6730;46.248;6.930;2024-01-06T11:49:58;1.10;;;1.00;;
13321;SDS011;6730;46.248;6.930;2024-01-06T11:52:26;1.33;;;1.10;;
13321;SDS011;6730;46.248;6.930;2024-01-06T11:54:52;2.40;;;1.40;;
13321;SDS011;6730;46.248;6.930;2024-01-06T11:57:20;1.37;;;0.90;;
13321;SDS011;6730;46.248;6.930;2024-01-06T11:59:47;1.37;;;1.10;;
13321;SDS011;6730;46.248;6.930;2024-01-06T12:02:13;1.90;;;1.00;;
13321;SDS011;6730;46.248;6.930;2024-01-06T12:04:39;2.13;;;1.20;;
13321;SDS011;6730;46.248;6.930;2024-01-06T12:07:08;1.20;;;1.10;;
13321;SDS011;6730;46.248;6.930;2024-01-06T12:09:34;1.00;;;0.90;;
13321;SDS011;6730;46.248;6.930;2024-01-06T12:12:03;2.97;;;1.40;;
13321;SDS011;6730;46.248;6.930;2024-01-06T12:14:32;1.20;;;1.00;;
13321;SDS011;6730;46.248;6.930;2024-01-06T12:16:59;2.80;;;1.10;;
13321;SDS011;6730;46.248;6.930;2024-01-06T12:19:29;1.63;;;1.20;;
13321;SDS011;6730;46.248;6.930;2024-01-06T12:21:56;1.53;;;1.27;;
13321;SDS011;6730;46.248;6.930;2024-01-06T12:24:21;1.20;;;1.10;;
13321;SDS011;6730;46.248;6.930;2024-01-06T12:26:47;1.30;;;1.20;;
13321;SDS011;6730;46.248;6.930;2024-01-06T12:29:14;1.50;;;1.30;;
13321;SDS011;6730;46.248;6.930;2024-01-06T12:31:41;1.80;;;1.23;;
13321;SDS011;6730;46.248;6.930;2024-01-06T12:34:09;2.23;;;1.27;;
13321;SDS011;6730;46.248;6.930;2024-01-06T12:36:38;1.53;;;1.13;;
13321;SDS011;6730;46.248;6.930;2024-01-06T12:39:06;1.63;;;1.13;;
13321;SDS011;6730;46.248;6.930;2024-01-06T12:41:38;1.07;;;0.93;;
13321;SDS011;6730;46.248;6.930;2024-01-06T12:44:07;2.30;;;2.07;;
13321;SDS011;6730;46.248;6.930;2024-01-06T12:46:33;4.20;;;2.27;;
13321;SDS011;6730;46.248;6.930;2024-01-06T12:48:59;3.33;;;2.17;;
13321;SDS011;6730;46.248;6.930;2024-01-06T12:51:25;2.50;;;2.07;;
13321;SDS011;6730;46.248;6.930;2024-01-06T12:53:50;1.60;;;1.10;;
13321;SDS011;6730;46.248;6.930;2024-01-06T12:56:17;2.03;;;1.50;;
13321;SDS011;6730;46.248;6.930;2024-01-06T12:58:42;2.17;;;1.70;;
13321;SDS011;6730;46.248;6.930;2024-01-06T13:01:09;3.13;;;1.23;;
13321;SDS011;6730;46.248;6.930;2024-01-06T13:03:35;1.87;;;1.30;;
13321;SDS011;6730;46.248;6.930;2024-01-06T13:06:00;2.83;;;1.30;;
13321;SDS011;6730;46.248;6.930;2024-01-06T13:08:26;2.70;;;1.60;;
13321;SDS011;6730;46.248;6.930;2024-01-06T13:10:53;2.33;;;1.10;;
13321;SDS011;6730;46.248;6.930;2024-01-06T13:13:22;1.40;;;1.10;;
13321;SDS011;6730;46.248;6.930;2024-01-06T13:15:47;0.90;;;0.90;;
13321;SDS011;6730;46.248;6.930;2024-01-06T13:18:15;1.03;;;0.93;;
13321;SDS011;6730;46.248;6.930;2024-01-06T13:20:44;1.43;;;1.07;;
13321;SDS011;6730;46.248;6.930;2024-01-06T13:23:10;1.97;;;1.10;;
13321;SDS011;6730;46.248;6.930;2024-01-06T13:25:39;1.57;;;1.20;;
13321;SDS011;6730;46.248;6.930;2024-01-06T13:28:05;0.97;;;0.90;;
13321;SDS011;6730;46.248;6.930;2024-01-06T13:30:31;3.90;;;1.83;;
13321;SDS011;6730;46.248;6.930;2024-01-06T13:32:57;3.23;;;1.03;;
13321;SDS011;6730;46.248;6.930;2024-01-06T13:35:24;1.40;;;1.00;;
13321;SDS011;6730;46.248;6.930;2024-01-06T13:37:53;2.10;;;1.43;;
13321;SDS011;6730;46.248;6.930;2024-01-06T13:40:21;1.00;;;0.90;;
13321;SDS011;6730;46.248;6.930;2024-01-06T13:42:48;1.30;;;1.00;;
13321;SDS011;6730;46.248;6.930;2024-01-06T13:45:14;1.03;;;0.87;;
13321;SDS011;6730;46.248;6.930;2024-01-06T13:47:39;1.93;;;1.20;;
13321;SDS011;6730;46.248;6.930;2024-01-06T13:50:11;1.37;;;0.93;;
13321;SDS011;6730;46.248;6.930;2024-01-06T13:52:38;1.07;;;0.90;;
13321;SDS011;6730;46.248;6.930;2024-01-06T13:55:04;1.20;;;1.07;;
13321;SDS011;6730;46.248;6.930;2024-01-06T13:57:31;1.33;;;1.10;;
13321;SDS011;6730;46.248;6.930;2024-01-06T13:59:57;0.77;;;0.77;;
13321;SDS011;6730;46.248;6.930;2024-01-06T14:02:23;1.33;;;1.00;;
13321;SDS011;6730;46.248;6.930;2024-01-06T14:04:49;1.53;;;0.87;;
13321;SDS011;6730;46.248;6.930;2024-01-06T14:07:15;1.03;;;0.93;;
13321;SDS011;6730;46.248;6.930;2024-01-06T14:09:44;0.80;;;0.80;;
13321;SDS011;6730;46.248;6.930;2024-01-06T14:12:10;2.53;;;1.00;;
13321;SDS011;6730;46.248;6.930;2024-01-06T14:14:36;1.03;;;0.80;;
13321;SDS011;6730;46.248;6.930;2024-01-06T14:17:02;1.17;;;0.90;;
13321;SDS011;6730;46.248;6.930;2024-01-06T14:19:28;1.93;;;1.27;;
13321;SDS011;6730;46.248;6.930;2024-01-06T14:21:54;2.03;;;1.20;;
13321;SDS011;6730;46.248;6.930;2024-01-06T14:24:19;1.53;;;0.90;;
13321;SDS011;6730;46.248;6.930;2024-01-06T14:26:52;0.77;;;0.77;;
13321;SDS011;6730;46.248;6.930;2024-01-06T14:29:18;1.00;;;0.90;;
13321;SDS011;6730;46.248;6.930;2024-01-06T14:31:44;1.33;;;0.90;;
13321;SDS011;6730;46.248;6.930;2024-01-06T14:34:11;1.10;;;0.90;;
13321;SDS011;6730;46.248;6.930;2024-01-06T14:36:37;1.43;;;0.80;;
13321;SDS011;6730;46.248;6.930;2024-01-06T14:39:02;1.27;;;0.77;;
13321;SDS011;6730;46.248;6.930;2024-01-06T14:41:31;0.73;;;0.73;;
13321;SDS011;6730;46.248;6.930;2024-01-06T14:43:58;1.23;;;0.77;;
13321;SDS011;6730;46.248;6.930;2024-01-06T14:46:24;0.90;;;0.67;;
13321;SDS011;6730;46.248;6.930;2024-01-06T14:48:49;1.73;;;0.80;;
13321;SDS011;6730;46.248;6.930;2024-01-06T14:51:16;0.43;;;0.43;;
13321;SDS011;6730;46.248;6.930;2024-01-06T14:53:42;0.60;;;0.60;;
13321;SDS011;6730;46.248;6.930;2024-01-06T14:56:08;0.47;;;0.43;;
13321;SDS011;6730;46.248;6.930;2024-01-06T14:58:33;1.53;;;0.70;;
13321;SDS011;6730;46.248;6.930;2024-01-06T15:00:59;0.40;;;0.40;;
13321;SDS011;6730;46.248;6.930;2024-01-06T15:03:25;1.30;;;0.63;;
13321;SDS011;6730;46.248;6.930;2024-01-06T15:05:50;0.50;;;0.50;;
13321;SDS011;6730;46.248;6.930;2024-01-06T15:08:16;0.60;;;0.60;;
13321;SDS011;6730;46.248;6.930;2024-01-06T15:10:42;0.50;;;0.50;;
13321;SDS011;6730;46.248;6.930;2024-01-06T15:13:07;1.07;;;0.70;;
13321;SDS011;6730;46.248;6.930;2024-01-06T15:15:33;0.90;;;0.63;;